METAR Data
IDs: Format: Raw Decoded Include TAF

Data at: 1356 UTC 20 Oct 2021

CYBW 201300Z AUTO VRB03KT 1/8SM R35/1600V2200FT/ FZFG VV002 M04/M05 A2994 RMK ICG PAST HR SLP186